sensor_id;sensor_type;location;lat;lon;timestamp;temperature;humidity
82039;DHT22;71610;42.628;23.378;2023-11-18T00:00:23;22.00;45.70
82039;DHT22;71610;42.628;23.378;2023-11-18T00:02:49;22.00;45.70
82039;DHT22;71610;42.628;23.378;2023-11-18T00:05:15;22.10;45.70
82039;DHT22;71610;42.628;23.378;2023-11-18T00:07:41;22.00;45.60
82039;DHT22;71610;42.628;23.378;2023-11-18T00:10:08;22.00;45.60
82039;DHT22;71610;42.628;23.378;2023-11-18T00:12:37;22.00;45.60
82039;DHT22;71610;42.628;23.378;2023-11-18T00:15:07;22.00;45.50
82039;DHT22;71610;42.628;23.378;2023-11-18T00:17:34;22.00;45.60
82039;DHT22;71610;42.628;23.378;2023-11-18T00:20:01;22.00;45.60
82039;DHT22;71610;42.628;23.378;2023-11-18T00:22:34;22.00;45.50
82039;DHT22;71610;42.628;23.378;2023-11-18T00:24:59;22.00;45.50
82039;DHT22;71610;42.628;23.378;2023-11-18T00:27:25;22.00;45.50
82039;DHT22;71610;42.628;23.378;2023-11-18T00:29:51;22.00;45.40
82039;DHT22;71610;42.628;23.378;2023-11-18T00:32:18;22.00;45.40
82039;DHT22;71610;42.628;23.378;2023-11-18T00:34:44;21.90;45.40
82039;DHT22;71610;42.628;23.378;2023-11-18T00:37:10;22.00;45.50
82039;DHT22;71610;42.628;23.378;2023-11-18T00:39:36;22.00;46.50
82039;DHT22;71610;42.628;23.378;2023-11-18T00:42:03;22.00;45.40
82039;DHT22;71610;42.628;23.378;2023-11-18T00:44:28;22.00;45.40
82039;DHT22;71610;42.628;23.378;2023-11-18T00:46:54;21.90;45.30
82039;DHT22;71610;42.628;23.378;2023-11-18T00:49:20;21.90;45.20
82039;DHT22;71610;42.628;23.378;2023-11-18T00:51:46;21.90;45.20
82039;DHT22;71610;42.628;23.378;2023-11-18T00:54:11;21.90;45.20
82039;DHT22;71610;42.628;23.378;2023-11-18T00:56:37;21.90;45.20
82039;DHT22;71610;42.628;23.378;2023-11-18T00:59:03;21.90;45.20
82039;DHT22;71610;42.628;23.378;2023-11-18T01:01:29;21.90;45.20
82039;DHT22;71610;42.628;23.378;2023-11-18T01:03:55;21.90;45.20
82039;DHT22;71610;42.628;23.378;2023-11-18T01:06:27;21.90;45.20
82039;DHT22;71610;42.628;23.378;2023-11-18T01:08:53;21.90;45.20
82039;DHT22;71610;42.628;23.378;2023-11-18T01:11:19;21.90;45.20
82039;DHT22;71610;42.628;23.378;2023-11-18T01:13:46;21.90;45.60
82039;DHT22;71610;42.628;23.378;2023-11-18T01:16:12;21.90;45.10
82039;DHT22;71610;42.628;23.378;2023-11-18T01:18:39;21.90;45.00
82039;DHT22;71610;42.628;23.378;2023-11-18T01:21:05;21.90;45.10
82039;DHT22;71610;42.628;23.378;2023-11-18T01:23:31;21.90;45.00
82039;DHT22;71610;42.628;23.378;2023-11-18T01:25:56;21.90;45.00
82039;DHT22;71610;42.628;23.378;2023-11-18T01:28:22;21.90;45.00
82039;DHT22;71610;42.628;23.378;2023-11-18T01:30:51;21.90;45.00
82039;DHT22;71610;42.628;23.378;2023-11-18T01:33:17;21.80;44.80
82039;DHT22;71610;42.628;23.378;2023-11-18T01:35:43;21.90;44.90
82039;DHT22;71610;42.628;23.378;2023-11-18T01:38:09;21.80;44.80
82039;DHT22;71610;42.628;23.378;2023-11-18T01:40:37;21.80;44.80
82039;DHT22;71610;42.628;23.378;2023-11-18T01:43:03;21.80;44.70
82039;DHT22;71610;42.628;23.378;2023-11-18T01:45:37;21.80;44.60
82039;DHT22;71610;42.628;23.378;2023-11-18T01:48:02;21.80;44.70
82039;DHT22;71610;42.628;23.378;2023-11-18T01:50:28;21.80;44.70
82039;DHT22;71610;42.628;23.378;2023-11-18T01:52:55;21.80;44.70
82039;DHT22;71610;42.628;23.378;2023-11-18T01:55:21;21.80;44.70
82039;DHT22;71610;42.628;23.378;2023-11-18T01:57:47;21.80;44.70
82039;DHT22;71610;42.628;23.378;2023-11-18T02:00:13;21.80;44.60
82039;DHT22;71610;42.628;23.378;2023-11-18T02:02:39;21.80;44.70
82039;DHT22;71610;42.628;23.378;2023-11-18T02:05:05;21.80;44.70
82039;DHT22;71610;42.628;23.378;2023-11-18T02:07:33;21.80;44.60
82039;DHT22;71610;42.628;23.378;2023-11-18T02:09:59;21.80;44.70
82039;DHT22;71610;42.628;23.378;2023-11-18T02:12:43;21.80;44.60
82039;DHT22;71610;42.628;23.378;2023-11-18T02:15:10;21.80;44.60
82039;DHT22;71610;42.628;23.378;2023-11-18T02:17:38;21.80;44.60
82039;DHT22;71610;42.628;23.378;2023-11-18T02:20:05;21.80;44.60
82039;DHT22;71610;42.628;23.378;2023-11-18T02:22:48;21.80;44.60
82039;DHT22;71610;42.628;23.378;2023-11-18T02:25:17;21.80;44.60
82039;DHT22;71610;42.628;23.378;2023-11-18T02:27:44;21.80;44.50
82039;DHT22;71610;42.628;23.378;2023-11-18T02:30:11;21.70;44.50
82039;DHT22;71610;42.628;23.378;2023-11-18T02:32:58;21.70;44.60
82039;DHT22;71610;42.628;23.378;2023-11-18T02:35:29;21.70;44.50
82039;DHT22;71610;42.628;23.378;2023-11-18T02:37:57;21.70;44.50
82039;DHT22;71610;42.628;23.378;2023-11-18T02:40:33;21.70;44.50
82039;DHT22;71610;42.628;23.378;2023-11-18T02:43:01;21.70;44.50
82039;DHT22;71610;42.628;23.378;2023-11-18T02:45:31;21.70;44.50
82039;DHT22;71610;42.628;23.378;2023-11-18T02:47:57;21.70;44.40
82039;DHT22;71610;42.628;23.378;2023-11-18T02:50:24;21.70;44.40
82039;DHT22;71610;42.628;23.378;2023-11-18T02:52:50;21.70;44.30
82039;DHT22;71610;42.628;23.378;2023-11-18T02:55:16;21.70;44.30
82039;DHT22;71610;42.628;23.378;2023-11-18T02:57:42;21.70;44.30
82039;DHT22;71610;42.628;23.378;2023-11-18T03:00:08;21.70;44.30
82039;DHT22;71610;42.628;23.378;2023-11-18T03:02:49;21.70;44.20
82039;DHT22;71610;42.628;23.378;2023-11-18T03:05:20;21.70;44.10
82039;DHT22;71610;42.628;23.378;2023-11-18T03:07:47;21.70;44.10
82039;DHT22;71610;42.628;23.378;2023-11-18T03:10:16;21.70;44.10
82039;DHT22;71610;42.628;23.378;2023-11-18T03:15:15;21.70;44.00
82039;DHT22;71610;42.628;23.378;2023-11-18T03:17:47;21.70;43.90
82039;DHT22;71610;42.628;23.378;2023-11-18T03:20:14;21.70;43.90
82039;DHT22;71610;42.628;23.378;2023-11-18T03:22:45;21.70;43.90
82039;DHT22;71610;42.628;23.378;2023-11-18T03:25:14;21.70;43.90
82039;DHT22;71610;42.628;23.378;2023-11-18T03:27:40;21.70;43.80
82039;DHT22;71610;42.628;23.378;2023-11-18T03:30:07;21.70;43.80
82039;DHT22;71610;42.628;23.378;2023-11-18T03:32:36;21.70;43.70
82039;DHT22;71610;42.628;23.378;2023-11-18T03:35:03;21.70;43.70
82039;DHT22;71610;42.628;23.378;2023-11-18T03:37:32;21.60;43.70
82039;DHT22;71610;42.628;23.378;2023-11-18T03:39:58;21.60;43.60
82039;DHT22;71610;42.628;23.378;2023-11-18T03:42:24;21.60;43.60
82039;DHT22;71610;42.628;23.378;2023-11-18T03:44:49;21.60;43.40
82039;DHT22;71610;42.628;23.378;2023-11-18T03:47:15;21.60;43.40
82039;DHT22;71610;42.628;23.378;2023-11-18T03:49:41;21.70;43.50
82039;DHT22;71610;42.628;23.378;2023-11-18T03:52:07;21.60;43.40
82039;DHT22;71610;42.628;23.378;2023-11-18T03:54:33;21.60;43.30
82039;DHT22;71610;42.628;23.378;2023-11-18T03:56:59;21.60;43.30
82039;DHT22;71610;42.628;23.378;2023-11-18T03:59:25;21.60;43.20
82039;DHT22;71610;42.628;23.378;2023-11-18T04:01:51;21.60;43.20
82039;DHT22;71610;42.628;23.378;2023-11-18T04:04:17;21.60;43.10
82039;DHT22;71610;42.628;23.378;2023-11-18T04:06:43;21.60;43.10
82039;DHT22;71610;42.628;23.378;2023-11-18T04:09:09;21.60;43.00
82039;DHT22;71610;42.628;23.378;2023-11-18T04:11:36;21.60;43.00
82039;DHT22;71610;42.628;23.378;2023-11-18T04:14:02;21.60;42.90
82039;DHT22;71610;42.628;23.378;2023-11-18T04:16:30;21.60;42.90
82039;DHT22;71610;42.628;23.378;2023-11-18T04:18:56;21.60;42.90
82039;DHT22;71610;42.628;23.378;2023-11-18T04:21:22;21.60;42.90
82039;DHT22;71610;42.628;23.378;2023-11-18T04:23:47;21.60;42.80
82039;DHT22;71610;42.628;23.378;2023-11-18T04:26:13;21.60;42.80
82039;DHT22;71610;42.628;23.378;2023-11-18T04:28:39;21.60;42.80
82039;DHT22;71610;42.628;23.378;2023-11-18T04:31:05;21.60;42.80
82039;DHT22;71610;42.628;23.378;2023-11-18T04:33:31;21.60;42.70
82039;DHT22;71610;42.628;23.378;2023-11-18T04:35:57;21.60;42.60
82039;DHT22;71610;42.628;23.378;2023-11-18T04:38:23;21.60;42.60
82039;DHT22;71610;42.628;23.378;2023-11-18T04:40:49;21.60;42.60
82039;DHT22;71610;42.628;23.378;2023-11-18T04:43:15;21.60;42.50
82039;DHT22;71610;42.628;23.378;2023-11-18T04:45:42;21.60;42.50
82039;DHT22;71610;42.628;23.378;2023-11-18T04:48:08;21.50;42.40
82039;DHT22;71610;42.628;23.378;2023-11-18T04:50:34;21.50;42.30
82039;DHT22;71610;42.628;23.378;2023-11-18T04:53:00;21.50;42.20
82039;DHT22;71610;42.628;23.378;2023-11-18T04:55:25;21.60;42.30
82039;DHT22;71610;42.628;23.378;2023-11-18T04:57:52;21.50;42.20
82039;DHT22;71610;42.628;23.378;2023-11-18T05:00:18;21.50;42.20
82039;DHT22;71610;42.628;23.378;2023-11-18T05:02:45;21.50;42.10
82039;DHT22;71610;42.628;23.378;2023-11-18T05:05:15;21.50;43.20
82039;DHT22;71610;42.628;23.378;2023-11-18T05:07:42;21.50;42.00
82039;DHT22;71610;42.628;23.378;2023-11-18T05:10:08;21.50;42.10
82039;DHT22;71610;42.628;23.378;2023-11-18T05:12:38;21.50;42.10
82039;DHT22;71610;42.628;23.378;2023-11-18T05:15:06;21.50;42.10
82039;DHT22;71610;42.628;23.378;2023-11-18T05:17:36;21.50;42.00
82039;DHT22;71610;42.628;23.378;2023-11-18T05:20:06;21.50;41.90
82039;DHT22;71610;42.628;23.378;2023-11-18T05:22:36;21.50;42.00
82039;DHT22;71610;42.628;23.378;2023-11-18T05:25:03;21.50;41.90
82039;DHT22;71610;42.628;23.378;2023-11-18T05:27:30;21.50;41.90
82039;DHT22;71610;42.628;23.378;2023-11-18T05:29:57;21.50;41.90
82039;DHT22;71610;42.628;23.378;2023-11-18T05:32:27;21.50;41.80
82039;DHT22;71610;42.628;23.378;2023-11-18T05:34:53;21.50;41.80
82039;DHT22;71610;42.628;23.378;2023-11-18T05:37:21;21.50;41.80
82039;DHT22;71610;42.628;23.378;2023-11-18T05:39:47;21.50;41.70
82039;DHT22;71610;42.628;23.378;2023-11-18T05:42:14;21.50;41.60
82039;DHT22;71610;42.628;23.378;2023-11-18T05:44:41;21.50;41.70
82039;DHT22;71610;42.628;23.378;2023-11-18T05:47:08;21.50;41.50
82039;DHT22;71610;42.628;23.378;2023-11-18T05:49:37;21.50;41.40
82039;DHT22;71610;42.628;23.378;2023-11-18T05:52:04;21.40;41.30
82039;DHT22;71610;42.628;23.378;2023-11-18T05:54:30;21.50;41.40
82039;DHT22;71610;42.628;23.378;2023-11-18T05:56:56;21.50;41.30
82039;DHT22;71610;42.628;23.378;2023-11-18T05:59:22;21.50;41.20
82039;DHT22;71610;42.628;23.378;2023-11-18T06:01:49;21.50;41.30
82039;DHT22;71610;42.628;23.378;2023-11-18T06:04:15;21.50;41.20
82039;DHT22;71610;42.628;23.378;2023-11-18T06:06:41;21.40;41.20
82039;DHT22;71610;42.628;23.378;2023-11-18T06:09:07;21.40;41.20
82039;DHT22;71610;42.628;23.378;2023-11-18T06:11:43;21.50;41.10
82039;DHT22;71610;42.628;23.378;2023-11-18T06:14:10;21.40;41.00
82039;DHT22;71610;42.628;23.378;2023-11-18T06:16:38;21.40;41.00
82039;DHT22;71610;42.628;23.378;2023-11-18T06:19:05;21.40;40.90
82039;DHT22;71610;42.628;23.378;2023-11-18T06:21:31;21.40;40.90
82039;DHT22;71610;42.628;23.378;2023-11-18T06:23:58;21.40;40.80
82039;DHT22;71610;42.628;23.378;2023-11-18T06:26:25;21.40;40.80
82039;DHT22;71610;42.628;23.378;2023-11-18T06:28:53;21.40;40.70
82039;DHT22;71610;42.628;23.378;2023-11-18T06:31:19;21.40;40.70
82039;DHT22;71610;42.628;23.378;2023-11-18T06:33:47;21.40;40.60
82039;DHT22;71610;42.628;23.378;2023-11-18T06:38:51;21.40;40.50
82039;DHT22;71610;42.628;23.378;2023-11-18T06:41:19;21.40;40.40
82039;DHT22;71610;42.628;23.378;2023-11-18T06:43:46;21.40;40.40
82039;DHT22;71610;42.628;23.378;2023-11-18T06:46:22;21.40;40.40
82039;DHT22;71610;42.628;23.378;2023-11-18T06:48:48;21.40;40.40
82039;DHT22;71610;42.628;23.378;2023-11-18T06:51:15;21.40;40.30
82039;DHT22;71610;42.628;23.378;2023-11-18T06:53:42;21.40;40.30
82039;DHT22;71610;42.628;23.378;2023-11-18T06:56:09;21.40;40.20
82039;DHT22;71610;42.628;23.378;2023-11-18T06:58:39;21.40;40.30
82039;DHT22;71610;42.628;23.378;2023-11-18T07:01:06;21.30;40.10
82039;DHT22;71610;42.628;23.378;2023-11-18T07:03:32;21.40;40.20
82039;DHT22;71610;42.628;23.378;2023-11-18T07:05:58;21.40;40.10
82039;DHT22;71610;42.628;23.378;2023-11-18T07:08:23;21.40;40.10
82039;DHT22;71610;42.628;23.378;2023-11-18T07:10:50;21.40;40.10
82039;DHT22;71610;42.628;23.378;2023-11-18T07:13:15;21.40;40.10
82039;DHT22;71610;42.628;23.378;2023-11-18T07:15:41;21.40;40.10
82039;DHT22;71610;42.628;23.378;2023-11-18T07:18:08;21.40;40.00
82039;DHT22;71610;42.628;23.378;2023-11-18T07:20:34;21.40;39.90
82039;DHT22;71610;42.628;23.378;2023-11-18T07:23:00;21.40;39.70
82039;DHT22;71610;42.628;23.378;2023-11-18T07:25:26;21.40;39.70
82039;DHT22;71610;42.628;23.378;2023-11-18T07:27:52;21.40;39.70
82039;DHT22;71610;42.628;23.378;2023-11-18T07:30:18;21.40;39.70
82039;DHT22;71610;42.628;23.378;2023-11-18T07:32:44;21.40;39.70
82039;DHT22;71610;42.628;23.378;2023-11-18T07:35:10;21.40;39.70
82039;DHT22;71610;42.628;23.378;2023-11-18T07:37:37;21.40;39.70
82039;DHT22;71610;42.628;23.378;2023-11-18T07:40:04;21.40;39.60
82039;DHT22;71610;42.628;23.378;2023-11-18T07:42:33;21.30;40.60
82039;DHT22;71610;42.628;23.378;2023-11-18T07:45:01;21.30;39.40
82039;DHT22;71610;42.628;23.378;2023-11-18T07:47:30;21.30;39.50
82039;DHT22;71610;42.628;23.378;2023-11-18T07:49:58;21.30;39.50
82039;DHT22;71610;42.628;23.378;2023-11-18T07:52:27;21.30;39.40
82039;DHT22;71610;42.628;23.378;2023-11-18T07:54:53;21.30;39.40
82039;DHT22;71610;42.628;23.378;2023-11-18T07:57:19;21.30;39.30
82039;DHT22;71610;42.628;23.378;2023-11-18T07:59:45;21.30;39.30
82039;DHT22;71610;42.628;23.378;2023-11-18T08:02:11;21.30;39.30
82039;DHT22;71610;42.628;23.378;2023-11-18T08:04:36;21.30;39.20
82039;DHT22;71610;42.628;23.378;2023-11-18T08:07:02;21.30;39.20
82039;DHT22;71610;42.628;23.378;2023-11-18T08:09:30;21.30;39.10
82039;DHT22;71610;42.628;23.378;2023-11-18T08:11:57;21.30;39.10
82039;DHT22;71610;42.628;23.378;2023-11-18T08:14:24;21.30;39.10
82039;DHT22;71610;42.628;23.378;2023-11-18T08:16:49;21.30;39.10
82039;DHT22;71610;42.628;23.378;2023-11-18T08:19:16;21.30;39.00
82039;DHT22;71610;42.628;23.378;2023-11-18T08:21:43;21.30;39.00
82039;DHT22;71610;42.628;23.378;2023-11-18T08:24:08;21.30;39.00
82039;DHT22;71610;42.628;23.378;2023-11-18T08:26:35;21.30;39.00
82039;DHT22;71610;42.628;23.378;2023-11-18T08:29:01;21.30;39.00
82039;DHT22;71610;42.628;23.378;2023-11-18T08:31:27;21.30;39.00
82039;DHT22;71610;42.628;23.378;2023-11-18T08:33:52;21.30;38.90
82039;DHT22;71610;42.628;23.378;2023-11-18T08:36:20;21.30;38.80
82039;DHT22;71610;42.628;23.378;2023-11-18T08:38:48;21.30;38.80
82039;DHT22;71610;42.628;23.378;2023-11-18T08:41:14;21.30;38.80
82039;DHT22;71610;42.628;23.378;2023-11-18T08:43:40;21.30;38.70
82039;DHT22;71610;42.628;23.378;2023-11-18T08:46:06;21.30;38.60
82039;DHT22;71610;42.628;23.378;2023-11-18T08:48:33;21.30;38.60
82039;DHT22;71610;42.628;23.378;2023-11-18T08:50:59;21.30;38.50
82039;DHT22;71610;42.628;23.378;2023-11-18T08:53:27;21.30;38.50
82039;DHT22;71610;42.628;23.378;2023-11-18T08:55:53;21.30;38.50
82039;DHT22;71610;42.628;23.378;2023-11-18T08:58:22;21.30;38.50
82039;DHT22;71610;42.628;23.378;2023-11-18T09:00:50;21.30;38.50
82039;DHT22;71610;42.628;23.378;2023-11-18T09:03:27;21.30;38.50
82039;DHT22;71610;42.628;23.378;2023-11-18T09:05:54;21.30;38.50
82039;DHT22;71610;42.628;23.378;2023-11-18T09:10:49;21.30;38.50
82039;DHT22;71610;42.628;23.378;2023-11-18T09:13:24;21.30;38.50
82039;DHT22;71610;42.628;23.378;2023-11-18T09:15:57;21.30;38.40
82039;DHT22;71610;42.628;23.378;2023-11-18T09:18:26;21.30;38.40
82039;DHT22;71610;42.628;23.378;2023-11-18T09:20:55;21.30;38.30
82039;DHT22;71610;42.628;23.378;2023-11-18T09:23:25;21.30;38.30
82039;DHT22;71610;42.628;23.378;2023-11-18T09:25:53;21.30;38.30
82039;DHT22;71610;42.628;23.378;2023-11-18T09:28:26;21.30;38.30
82039;DHT22;71610;42.628;23.378;2023-11-18T09:30:56;21.30;38.30
82039;DHT22;71610;42.628;23.378;2023-11-18T09:33:29;21.30;38.20
82039;DHT22;71610;42.628;23.378;2023-11-18T09:36:00;21.30;38.10
82039;DHT22;71610;42.628;23.378;2023-11-18T09:38:31;21.30;39.20
82039;DHT22;71610;42.628;23.378;2023-11-18T09:41:00;21.30;38.10
82039;DHT22;71610;42.628;23.378;2023-11-18T09:43:29;21.30;38.10
82039;DHT22;71610;42.628;23.378;2023-11-18T09:46:04;21.30;39.10
82039;DHT22;71610;42.628;23.378;2023-11-18T09:48:45;21.30;38.00
82039;DHT22;71610;42.628;23.378;2023-11-18T09:51:24;21.30;37.90
82039;DHT22;71610;42.628;23.378;2023-11-18T09:53:59;21.30;37.80
82039;DHT22;71610;42.628;23.378;2023-11-18T10:01:53;21.20;37.70
82039;DHT22;71610;42.628;23.378;2023-11-18T10:04:23;21.20;37.60
82039;DHT22;71610;42.628;23.378;2023-11-18T10:06:53;21.20;37.50
82039;DHT22;71610;42.628;23.378;2023-11-18T10:09:19;21.30;37.60
82039;DHT22;71610;42.628;23.378;2023-11-18T10:11:54;21.20;37.50
82039;DHT22;71610;42.628;23.378;2023-11-18T10:14:34;21.20;37.40
82039;DHT22;71610;42.628;23.378;2023-11-18T10:17:06;21.20;37.50
82039;DHT22;71610;42.628;23.378;2023-11-18T10:19:55;21.20;37.40
82039;DHT22;71610;42.628;23.378;2023-11-18T10:22:23;21.20;37.70
82039;DHT22;71610;42.628;23.378;2023-11-18T10:24:50;21.20;37.40
82039;DHT22;71610;42.628;23.378;2023-11-18T10:27:23;21.20;37.40
82039;DHT22;71610;42.628;23.378;2023-11-18T10:29:54;21.20;37.40
82039;DHT22;71610;42.628;23.378;2023-11-18T10:32:21;21.20;37.40
82039;DHT22;71610;42.628;23.378;2023-11-18T10:34:48;21.20;37.40
82039;DHT22;71610;42.628;23.378;2023-11-18T10:37:17;21.20;37.30
82039;DHT22;71610;42.628;23.378;2023-11-18T10:39:47;21.20;37.30
82039;DHT22;71610;42.628;23.378;2023-11-18T10:42:17;21.20;37.20
82039;DHT22;71610;42.628;23.378;2023-11-18T10:47:28;21.20;37.10
82039;DHT22;71610;42.628;23.378;2023-11-18T10:49:57;21.20;37.00
82039;DHT22;71610;42.628;23.378;2023-11-18T10:52:24;21.20;37.00
82039;DHT22;71610;42.628;23.378;2023-11-18T10:54:52;21.20;37.00
82039;DHT22;71610;42.628;23.378;2023-11-18T10:57:23;21.20;37.00
82039;DHT22;71610;42.628;23.378;2023-11-18T11:00:03;21.20;36.90
82039;DHT22;71610;42.628;23.378;2023-11-18T11:02:32;21.20;36.90
82039;DHT22;71610;42.628;23.378;2023-11-18T11:05:05;21.20;36.90
82039;DHT22;71610;42.628;23.378;2023-11-18T11:07:42;21.20;36.80
82039;DHT22;71610;42.628;23.378;2023-11-18T11:10:08;21.20;36.70
82039;DHT22;71610;42.628;23.378;2023-11-18T11:12:43;21.20;36.70
82039;DHT22;71610;42.628;23.378;2023-11-18T11:15:29;21.20;36.70
82039;DHT22;71610;42.628;23.378;2023-11-18T11:18:06;21.20;36.70
82039;DHT22;71610;42.628;23.378;2023-11-18T11:20:42;21.20;36.50
82039;DHT22;71610;42.628;23.378;2023-11-18T11:26:39;21.20;36.40
82039;DHT22;71610;42.628;23.378;2023-11-18T11:31:58;21.20;36.20
82039;DHT22;71610;42.628;23.378;2023-11-18T11:34:26;21.20;36.20
82039;DHT22;71610;42.628;23.378;2023-11-18T11:36:56;21.20;36.20
82039;DHT22;71610;42.628;23.378;2023-11-18T11:39:24;21.20;36.20
82039;DHT22;71610;42.628;23.378;2023-11-18T11:41:55;21.10;36.10
82039;DHT22;71610;42.628;23.378;2023-11-18T11:44:22;21.20;36.10
82039;DHT22;71610;42.628;23.378;2023-11-18T11:46:59;21.20;36.10
82039;DHT22;71610;42.628;23.378;2023-11-18T11:49:27;21.10;36.00
82039;DHT22;71610;42.628;23.378;2023-11-18T11:54:55;21.10;36.00
82039;DHT22;71610;42.628;23.378;2023-11-18T11:57:22;21.20;36.10
82039;DHT22;71610;42.628;23.378;2023-11-18T12:02:20;21.10;36.10
82039;DHT22;71610;42.628;23.378;2023-11-18T12:04:50;21.10;36.10
82039;DHT22;71610;42.628;23.378;2023-11-18T12:07:23;21.10;36.10
82039;DHT22;71610;42.628;23.378;2023-11-18T12:09:54;21.10;36.00
82039;DHT22;71610;42.628;23.378;2023-11-18T12:12:25;21.10;36.00
82039;DHT22;71610;42.628;23.378;2023-11-18T12:14:57;21.10;36.00
82039;DHT22;71610;42.628;23.378;2023-11-18T12:17:26;21.10;36.00
82039;DHT22;71610;42.628;23.378;2023-11-18T12:19:57;21.10;36.00
82039;DHT22;71610;42.628;23.378;2023-11-18T12:23:03;21.10;36.00
82039;DHT22;71610;42.628;23.378;2023-11-18T12:25:32;21.10;36.10
82039;DHT22;71610;42.628;23.378;2023-11-18T12:27:58;21.10;36.10
82039;DHT22;71610;42.628;23.378;2023-11-18T12:33:01;21.10;36.00
82039;DHT22;71610;42.628;23.378;2023-11-18T12:41:55;21.10;36.00
82039;DHT22;71610;42.628;23.378;2023-11-18T12:44:30;21.10;35.90
82039;DHT22;71610;42.628;23.378;2023-11-18T12:47:01;21.10;35.90
82039;DHT22;71610;42.628;23.378;2023-11-18T12:49:47;21.10;35.90
82039;DHT22;71610;42.628;23.378;2023-11-18T12:52:22;21.10;35.90
82039;DHT22;71610;42.628;23.378;2023-11-18T12:54:49;21.00;35.80
82039;DHT22;71610;42.628;23.378;2023-11-18T12:57:27;21.10;35.80
82039;DHT22;71610;42.628;23.378;2023-11-18T12:59:57;21.00;35.70
82039;DHT22;71610;42.628;23.378;2023-11-18T13:02:22;21.10;35.80
82039;DHT22;71610;42.628;23.378;2023-11-18T13:04:49;21.10;35.60
82039;DHT22;71610;42.628;23.378;2023-11-18T13:07:16;21.10;35.50
82039;DHT22;71610;42.628;23.378;2023-11-18T13:09:43;21.00;35.50
82039;DHT22;71610;42.628;23.378;2023-11-18T13:12:11;21.10;35.50
82039;DHT22;71610;42.628;23.378;2023-11-18T13:14:41;21.00;35.40
82039;DHT22;71610;42.628;23.378;2023-11-18T13:17:12;21.10;35.50
82039;DHT22;71610;42.628;23.378;2023-11-18T13:19:38;21.00;35.50
82039;DHT22;71610;42.628;23.378;2023-11-18T13:22:06;21.10;35.60
82039;DHT22;71610;42.628;23.378;2023-11-18T13:24:39;21.10;35.50
82039;DHT22;71610;42.628;23.378;2023-11-18T13:27:05;21.00;35.40
82039;DHT22;71610;42.628;23.378;2023-11-18T13:29:36;21.00;35.50
82039;DHT22;71610;42.628;23.378;2023-11-18T13:32:02;21.00;35.40
82039;DHT22;71610;42.628;23.378;2023-11-18T13:34:35;21.00;35.40
82039;DHT22;71610;42.628;23.378;2023-11-18T13:37:04;21.00;35.40
82039;DHT22;71610;42.628;23.378;2023-11-18T13:39:32;21.00;35.40
82039;DHT22;71610;42.628;23.378;2023-11-18T13:42:01;21.00;35.30
82039;DHT22;71610;42.628;23.378;2023-11-18T13:44:43;21.00;35.30
82039;DHT22;71610;42.628;23.378;2023-11-18T13:47:10;21.00;35.20
82039;DHT22;71610;42.628;23.378;2023-11-18T13:49:39;21.00;35.20
82039;DHT22;71610;42.628;23.378;2023-11-18T13:52:06;21.00;35.20
82039;DHT22;71610;42.628;23.378;2023-11-18T13:54:35;21.00;35.20
82039;DHT22;71610;42.628;23.378;2023-11-18T13:57:02;21.00;35.20
82039;DHT22;71610;42.628;23.378;2023-11-18T13:59:29;21.00;35.20
82039;DHT22;71610;42.628;23.378;2023-11-18T14:01:55;21.00;35.20
82039;DHT22;71610;42.628;23.378;2023-11-18T14:04:27;21.00;35.20
82039;DHT22;71610;42.628;23.378;2023-11-18T14:06:57;21.00;35.20
82039;DHT22;71610;42.628;23.378;2023-11-18T14:09:23;21.00;35.20
82039;DHT22;71610;42.628;23.378;2023-11-18T14:11:53;21.00;35.20
82039;DHT22;71610;42.628;23.378;2023-11-18T14:14:23;20.90;35.10
82039;DHT22;71610;42.628;23.378;2023-11-18T14:16:53;20.90;35.10
82039;DHT22;71610;42.628;23.378;2023-11-18T14:19:19;20.90;35.10
82039;DHT22;71610;42.628;23.378;2023-11-18T14:21:45;20.90;35.10
82039;DHT22;71610;42.628;23.378;2023-11-18T14:24:11;20.90;35.10
82039;DHT22;71610;42.628;23.378;2023-11-18T14:26:37;20.90;35.00
82039;DHT22;71610;42.628;23.378;2023-11-18T14:29:06;20.90;35.00
82039;DHT22;71610;42.628;23.378;2023-11-18T14:31:33;20.90;35.00
82039;DHT22;71610;42.628;23.378;2023-11-18T14:33:59;20.90;35.00
82039;DHT22;71610;42.628;23.378;2023-11-18T14:36:26;20.90;35.10
82039;DHT22;71610;42.628;23.378;2023-11-18T14:38:52;20.90;35.00
82039;DHT22;71610;42.628;23.378;2023-11-18T14:41:18;20.90;35.10
82039;DHT22;71610;42.628;23.378;2023-11-18T14:43:46;20.90;35.00
82039;DHT22;71610;42.628;23.378;2023-11-18T14:46:11;20.90;35.00
82039;DHT22;71610;42.628;23.378;2023-11-18T14:48:38;20.90;35.00
82039;DHT22;71610;42.628;23.378;2023-11-18T14:51:04;20.90;35.00
82039;DHT22;71610;42.628;23.378;2023-11-18T14:53:33;20.90;35.00
82039;DHT22;71610;42.628;23.378;2023-11-18T14:56:00;20.90;35.00
82039;DHT22;71610;42.628;23.378;2023-11-18T14:58:25;20.90;35.00
82039;DHT22;71610;42.628;23.378;2023-11-18T15:00:51;20.80;35.00
82039;DHT22;71610;42.628;23.378;2023-11-18T15:03:17;20.90;35.00
82039;DHT22;71610;42.628;23.378;2023-11-18T15:05:43;20.80;34.90
82039;DHT22;71610;42.628;23.378;2023-11-18T15:08:12;20.80;34.90
82039;DHT22;71610;42.628;23.378;2023-11-18T15:10:40;20.80;34.90
82039;DHT22;71610;42.628;23.378;2023-11-18T15:13:07;20.80;34.90
82039;DHT22;71610;42.628;23.378;2023-11-18T15:15:38;20.80;34.90
82039;DHT22;71610;42.628;23.378;2023-11-18T15:18:04;20.80;34.90
82039;DHT22;71610;42.628;23.378;2023-11-18T15:20:34;20.80;35.00
82039;DHT22;71610;42.628;23.378;2023-11-18T15:23:00;20.80;35.00
82039;DHT22;71610;42.628;23.378;2023-11-18T15:25:26;20.80;35.00
82039;DHT22;71610;42.628;23.378;2023-11-18T15:27:52;20.80;35.00
82039;DHT22;71610;42.628;23.378;2023-11-18T15:30:19;20.80;35.00
82039;DHT22;71610;42.628;23.378;2023-11-18T15:32:46;20.80;35.00
82039;DHT22;71610;42.628;23.378;2023-11-18T15:35:13;20.80;35.00
82039;DHT22;71610;42.628;23.378;2023-11-18T15:37:42;20.80;35.00
82039;DHT22;71610;42.628;23.378;2023-11-18T15:40:12;20.80;35.00
82039;DHT22;71610;42.628;23.378;2023-11-18T15:42:39;20.80;35.00
82039;DHT22;71610;42.628;23.378;2023-11-18T15:47:42;20.80;35.00
82039;DHT22;71610;42.628;23.378;2023-11-18T15:50:12;20.80;35.00
82039;DHT22;71610;42.628;23.378;2023-11-18T15:52:43;20.80;35.00
82039;DHT22;71610;42.628;23.378;2023-11-18T15:55:09;20.80;35.00
82039;DHT22;71610;42.628;23.378;2023-11-18T15:57:39;20.80;35.00
82039;DHT22;71610;42.628;23.378;2023-11-18T16:00:06;20.80;35.00